createdAt,value
2022-10-23T00:02:12.243Z,99073.40
2022-10-23T00:04:51.395Z,99071.60
2022-10-23T00:07:27.744Z,99068.60
2022-10-23T00:10:04.668Z,99075.00
2022-10-23T00:12:41.038Z,99080.00
2022-10-23T00:15:19.971Z,99083.60
2022-10-23T00:17:55.956Z,99085.80
2022-10-23T00:20:31.984Z,99091.40
2022-10-23T00:23:07.828Z,99093.00
2022-10-23T00:25:43.647Z,99093.00
2022-10-23T00:28:19.609Z,99098.40
2022-10-23T00:30:55.503Z,99100.40
2022-10-23T00:33:32.562Z,99105.60
2022-10-23T00:36:13.713Z,99107.60
2022-10-23T00:38:53.253Z,99112.40
2022-10-23T00:41:32.349Z,99109.00
2022-10-23T00:44:32.545Z,99114.20
2022-10-23T00:47:08.499Z,99115.40
2022-10-23T00:49:44.658Z,99116.40
2022-10-23T00:52:20.517Z,99120.80
2022-10-23T00:54:57.863Z,99124.60
2022-10-23T00:57:33.849Z,99126.60
2022-10-23T01:00:15.095Z,99127.40
2022-10-23T01:02:51.454Z,99129.00
2022-10-23T01:05:38.605Z,99133.00
2022-10-23T01:08:30.533Z,99128.60
2022-10-23T01:11:19.777Z,99125.60
2022-10-23T01:14:09.553Z,99124.20
2022-10-23T01:17:01.957Z,99124.80
2022-10-23T01:20:02.526Z,99128.80
2022-10-23T01:23:13.606Z,99140.00
2022-10-23T01:26:27.191Z,99131.20
2022-10-23T01:29:15.167Z,99126.00
2022-10-23T01:31:59.446Z,99133.40
2022-10-23T01:34:47.744Z,99136.20
2022-10-23T01:37:35.019Z,99144.80
2022-10-23T01:40:24.280Z,99148.80
2022-10-23T01:43:07.960Z,99139.00
2022-10-23T01:45:50.963Z,99136.40
2022-10-23T01:48:34.457Z,99136.60
2022-10-23T01:51:15.375Z,99134.40
2022-10-23T01:53:57.179Z,99136.60
2022-10-23T01:56:36.203Z,99145.20
2022-10-23T01:59:22.840Z,99148.60
2022-10-23T02:02:03.759Z,99153.00
2022-10-23T02:04:47.818Z,99152.40
2022-10-23T02:07:24.376Z,99153.60
2022-10-23T02:10:00.853Z,99157.40
2022-10-23T02:12:51.396Z,99161.00
2022-10-23T02:15:38.629Z,99162.80
2022-10-23T02:18:31.344Z,99166.40
2022-10-23T02:21:15.271Z,99169.00
2022-10-23T02:24:00.784Z,99177.20
2022-10-23T02:26:43.636Z,99180.40
2022-10-23T02:29:30.550Z,99185.80
2022-10-23T02:32:10.997Z,99180.60
2022-10-23T02:34:49.832Z,99182.20
2022-10-23T02:37:26.126Z,99178.60
2022-10-23T02:40:04.101Z,99180.80
2022-10-23T02:42:58.595Z,99178.00
2022-10-23T02:45:47.859Z,99174.80
2022-10-23T02:48:33.677Z,99172.20
2022-10-23T02:51:25.050Z,99169.00
2022-10-23T02:54:17.376Z,99167.40
2022-10-23T02:57:04.418Z,99166.60
2022-10-23T02:59:51.002Z,99171.60
2022-10-23T03:02:37.177Z,99178.80
2022-10-23T03:05:20.764Z,99178.40
2022-10-23T03:07:57.429Z,99182.80
2022-10-23T03:10:33.847Z,99181.80
2022-10-23T03:13:10.615Z,99184.60
2022-10-23T03:15:51.019Z,99185.60
2022-10-23T03:18:27.551Z,99188.40
2022-10-23T03:21:06.671Z,99193.20
2022-10-23T03:23:42.738Z,99195.00
2022-10-23T03:26:22.077Z,99195.20
2022-10-23T03:28:57.959Z,99192.80
2022-10-23T03:31:33.918Z,99197.00
2022-10-23T03:34:11.582Z,99198.80
2022-10-23T03:36:49.473Z,99193.20
2022-10-23T03:39:29.471Z,99189.40
2022-10-23T03:42:06.530Z,99188.80
2022-10-23T03:44:42.611Z,99192.00
2022-10-23T03:47:19.347Z,99188.40
2022-10-23T03:49:55.294Z,99185.00
2022-10-23T03:52:32.190Z,99188.00
2022-10-23T03:55:10.497Z,99198.20
2022-10-23T03:57:46.467Z,99197.80
2022-10-23T04:00:23.737Z,99204.40
2022-10-23T04:02:59.633Z,99199.60
2022-10-23T04:05:36.169Z,99202.40
2022-10-23T04:08:17.517Z,99205.80
2022-10-23T04:10:58.107Z,99204.60
2022-10-23T04:13:43.679Z,99210.40
2022-10-23T04:16:19.500Z,99206.60
2022-10-23T04:18:55.683Z,99207.60
2022-10-23T04:21:31.955Z,99203.60
2022-10-23T04:24:08.773Z,99204.00
2022-10-23T04:26:44.616Z,99201.60
2022-10-23T04:29:22.546Z,99206.00
2022-10-23T04:31:58.633Z,99207.80
2022-10-23T04:34:34.501Z,99205.60
2022-10-23T04:37:11.583Z,99204.60
2022-10-23T04:39:47.458Z,99200.00
2022-10-23T04:42:23.838Z,99202.20
2022-10-23T04:45:00.063Z,99205.20
2022-10-23T04:47:36.490Z,99207.20
2022-10-23T04:50:14.119Z,99205.60
2022-10-23T04:53:39.910Z,99203.80
2022-10-23T04:56:32.832Z,99204.20
2022-10-23T04:59:12.510Z,99199.40
2022-10-23T05:01:49.539Z,99195.40
2022-10-23T05:04:25.475Z,99197.20
2022-10-23T05:07:23.004Z,99195.60
2022-10-23T05:10:41.637Z,99190.80
2022-10-23T05:13:24.790Z,99190.20
2022-10-23T05:16:02.734Z,99193.40
2022-10-23T05:18:46.274Z,99191.80
2022-10-23T05:21:28.329Z,99199.80
2022-10-23T05:24:04.566Z,99202.80
2022-10-23T05:26:40.641Z,99202.40
2022-10-23T05:29:16.997Z,99200.40
2022-10-23T05:31:59.035Z,99194.20
2022-10-23T05:34:41.091Z,99194.60
2022-10-23T05:37:19.355Z,99196.00
2022-10-23T05:39:55.320Z,99200.20
2022-10-23T05:42:31.482Z,99200.80
2022-10-23T05:45:09.010Z,99198.00
2022-10-23T05:48:30.010Z,99198.60
2022-10-23T05:51:32.849Z,99192.60
2022-10-23T05:54:27.637Z,99196.00
2022-10-23T05:57:44.689Z,99200.20
2022-10-23T06:00:23.796Z,99199.40
2022-10-23T06:03:07.090Z,99199.80
2022-10-23T06:05:52.111Z,99204.60
2022-10-23T06:08:31.047Z,99205.00
2022-10-23T06:11:15.139Z,99199.20
2022-10-23T06:13:54.872Z,99202.20
2022-10-23T06:16:31.506Z,99201.60
2022-10-23T06:19:07.462Z,99205.20
2022-10-23T06:21:43.849Z,99209.20
2022-10-23T06:24:21.546Z,99209.00
2022-10-23T06:27:08.618Z,99215.40
2022-10-23T06:29:48.790Z,99212.60
2022-10-23T06:32:24.755Z,99211.00
2022-10-23T06:35:13.083Z,99223.60
2022-10-23T06:37:48.988Z,99224.00
2022-10-23T06:40:31.098Z,99229.00
2022-10-23T06:43:17.030Z,99234.40
2022-10-23T06:46:40.587Z,99238.40
2022-10-23T06:49:48.397Z,99241.40
2022-10-23T06:52:42.053Z,99239.20
2022-10-23T06:55:21.376Z,99247.00
2022-10-23T06:57:57.828Z,99250.20
2022-10-23T07:00:34.103Z,99252.40
2022-10-23T07:03:10.260Z,99255.20
2022-10-23T07:05:47.511Z,99259.00
2022-10-23T07:08:24.016Z,99256.20
2022-10-23T07:11:03.619Z,99261.40
2022-10-23T07:13:42.680Z,99266.20
2022-10-23T07:16:26.230Z,99264.80
2022-10-23T07:19:03.267Z,99270.60
2022-10-23T07:22:00.635Z,99269.80
2022-10-23T07:25:17.550Z,99281.80
2022-10-23T07:27:56.682Z,99282.00
2022-10-23T07:30:33.296Z,99280.60
2022-10-23T07:33:12.509Z,99280.00
2022-10-23T07:36:04.793Z,99277.60
2022-10-23T07:38:42.512Z,99269.60
2022-10-23T07:41:19.283Z,99273.20
2022-10-23T07:43:55.496Z,99274.40
2022-10-23T07:46:31.794Z,99281.60
2022-10-23T07:49:07.914Z,99283.40
2022-10-23T07:51:47.497Z,99292.80
2022-10-23T07:54:26.568Z,99296.20
2022-10-23T07:57:21.745Z,99296.80
2022-10-23T08:00:04.597Z,99293.60
2022-10-23T08:02:49.560Z,99300.20
2022-10-23T08:05:26.548Z,99298.80
2022-10-23T08:08:07.015Z,99304.60
2022-10-23T08:10:43.313Z,99304.20
2022-10-23T08:13:21.236Z,99311.80
2022-10-23T08:16:12.105Z,99311.20
2022-10-23T08:19:08.152Z,99302.60
2022-10-23T08:21:45.362Z,99297.60
2022-10-23T08:24:22.619Z,99297.20
2022-10-23T08:26:59.816Z,99294.40
2022-10-23T08:29:37.430Z,99294.40
2022-10-23T08:32:13.724Z,99293.00
2022-10-23T08:35:45.713Z,99297.60
2022-10-23T08:38:21.957Z,99291.20
2022-10-23T08:40:58.381Z,99288.20
2022-10-23T08:43:55.892Z,99290.20
2022-10-23T08:46:50.362Z,99294.40
2022-10-23T08:49:48.450Z,99292.80
2022-10-23T08:52:35.762Z,99288.60
2022-10-23T08:55:27.689Z,99290.60
2022-10-23T08:58:15.664Z,99285.20
2022-10-23T09:00:54.429Z,99289.00
2022-10-23T09:03:31.454Z,99291.60
2022-10-23T09:06:26.622Z,99297.40
2022-10-23T09:09:29.687Z,99295.40
2022-10-23T09:12:15.221Z,99297.00
2022-10-23T09:15:21.279Z,99307.40
2022-10-23T09:18:08.994Z,99310.20
2022-10-23T09:20:50.276Z,99308.20
2022-10-23T09:23:28.249Z,99306.40
2022-10-23T09:26:16.532Z,99308.40
2022-10-23T09:29:02.807Z,99309.20
2022-10-23T09:31:50.891Z,99303.00
2022-10-23T09:34:30.037Z,99301.20
2022-10-23T09:37:26.357Z,99308.80
2022-10-23T09:40:23.362Z,99315.60
2022-10-23T09:43:13.092Z,99319.20
2022-10-23T09:46:02.939Z,99320.80
2022-10-23T09:48:40.214Z,99313.00
2022-10-23T09:51:24.604Z,99306.40
2022-10-23T09:54:02.685Z,99300.80
2022-10-23T09:56:50.568Z,99297.20
2022-10-23T09:59:33.360Z,99291.80
2022-10-23T10:02:30.491Z,99289.00
2022-10-23T10:05:32.797Z,99283.20
2022-10-23T10:08:22.997Z,99278.60
2022-10-23T10:11:05.950Z,99274.40
2022-10-23T10:14:29.121Z,99269.80
2022-10-23T10:17:19.353Z,99267.20
2022-10-23T10:20:25.136Z,99266.60
2022-10-23T10:23:15.437Z,99269.80
2022-10-23T10:26:03.858Z,99275.80
2022-10-23T10:29:18.492Z,99278.60
2022-10-23T10:32:15.130Z,99272.80
2022-10-23T10:35:02.373Z,99266.00
2022-10-23T10:38:03.261Z,99266.60
2022-10-23T10:40:49.932Z,99268.60
2022-10-23T10:43:42.712Z,99266.20
2022-10-23T10:46:30.437Z,99264.00
2022-10-23T10:49:19.985Z,99258.60
2022-10-23T10:52:26.270Z,99252.80
2022-10-23T10:55:20.042Z,99252.00
2022-10-23T10:58:04.247Z,99250.40
2022-10-23T11:00:40.439Z,99250.00
2022-10-23T11:03:39.848Z,99242.80
2022-10-23T11:06:24.373Z,99236.60
2022-10-23T11:09:19.723Z,99235.00
2022-10-23T11:11:57.373Z,99227.40
2022-10-23T11:14:36.486Z,99228.20
2022-10-23T11:17:24.366Z,99221.40
2022-10-23T11:20:11.198Z,99216.20
2022-10-23T11:23:02.108Z,99217.20
2022-10-23T11:26:02.391Z,99211.80
2022-10-23T11:29:16.514Z,99208.00
2022-10-23T11:32:24.300Z,99202.80
2022-10-23T11:35:21.512Z,99203.80
2022-10-23T11:38:21.336Z,99202.60
2022-10-23T11:41:04.351Z,99204.20
2022-10-23T11:43:55.421Z,99198.00
2022-10-23T11:46:39.951Z,99202.40
2022-10-23T11:49:25.711Z,99193.60
2022-10-23T11:52:23.186Z,99191.60
2022-10-23T11:55:20.571Z,99186.40
2022-10-23T11:58:23.129Z,99186.20
2022-10-23T12:01:17.946Z,99183.20
2022-10-23T12:04:01.651Z,99176.20
2022-10-23T12:06:48.201Z,99171.20
2022-10-23T12:09:45.045Z,99173.00
2022-10-23T12:12:35.707Z,99167.20
2022-10-23T12:15:26.105Z,99169.40
2022-10-23T12:18:17.949Z,99163.80
2022-10-23T12:20:58.979Z,99164.80
2022-10-23T12:23:55.750Z,99164.00
2022-10-23T12:27:15.548Z,99158.80
2022-10-23T12:30:28.920Z,99148.60
2022-10-23T12:33:26.631Z,99140.60
2022-10-23T12:36:44.731Z,99136.60
2022-10-23T12:39:39.296Z,99120.80
2022-10-23T12:42:26.083Z,99120.20
2022-10-23T12:45:19.820Z,99125.20
2022-10-23T12:47:56.615Z,99125.60
2022-10-23T12:50:35.364Z,99120.60
2022-10-23T12:53:21.272Z,99121.80
2022-10-23T12:56:05.559Z,99121.80
2022-10-23T12:58:49.974Z,99119.60
2022-10-23T13:01:33.165Z,99119.20
2022-10-23T13:07:02.589Z,99120.00
2022-10-23T13:09:43.002Z,99118.20
2022-10-23T13:12:31.336Z,99122.80
2022-10-23T13:15:21.252Z,99123.60
2022-10-23T13:18:15.483Z,99121.20
2022-10-23T13:21:03.168Z,99117.60
2022-10-23T13:23:45.809Z,99118.80
2022-10-23T13:26:35.941Z,99114.80
2022-10-23T13:32:26.246Z,99106.40
2022-10-23T13:35:20.412Z,99100.80
2022-10-23T13:38:08.289Z,99099.60
2022-10-23T13:40:44.648Z,99092.40
2022-10-23T13:43:29.405Z,99095.80
2022-10-23T13:46:05.623Z,99101.40
2022-10-23T13:48:41.813Z,99106.00
2022-10-23T13:51:23.355Z,99103.80
2022-10-23T13:54:00.913Z,99110.20
2022-10-23T13:56:36.694Z,99105.20
2022-10-23T13:59:13.398Z,99108.40
2022-10-23T14:01:51.814Z,99108.60
2022-10-23T14:04:27.868Z,99103.40
2022-10-23T14:07:03.705Z,99111.20
2022-10-23T14:09:39.887Z,99106.60
2022-10-23T14:12:16.287Z,99111.20
2022-10-23T14:14:56.444Z,99103.80
2022-10-23T14:17:32.500Z,99101.00
2022-10-23T14:20:11.387Z,99095.20
2022-10-23T14:22:48.198Z,99100.20
2022-10-23T14:25:24.567Z,99099.40
2022-10-23T14:28:00.959Z,99096.00
2022-10-23T14:30:38.709Z,99098.40
2022-10-23T14:33:15.155Z,99100.20
2022-10-23T14:35:53.788Z,99103.20
2022-10-23T14:38:29.978Z,99100.80
2022-10-23T14:41:10.463Z,99094.20
2022-10-23T14:43:46.494Z,99092.60
2022-10-23T14:46:25.697Z,99091.00
2022-10-23T14:49:02.571Z,99093.40
2022-10-23T14:51:40.274Z,99090.40
2022-10-23T14:54:17.327Z,99090.40
2022-10-23T14:56:53.353Z,99091.80
2022-10-23T14:59:29.390Z,99091.20
2022-10-23T15:02:05.269Z,99090.40
2022-10-23T15:04:42.903Z,99085.00
2022-10-23T15:07:18.930Z,99086.20
2022-10-23T15:09:55.682Z,99083.80
2022-10-23T15:12:31.651Z,99089.40
2022-10-23T15:15:10.149Z,99087.00
2022-10-23T15:17:46.055Z,99084.00
2022-10-23T15:20:23.089Z,99085.00
2022-10-23T15:23:00.221Z,99086.80
2022-10-23T15:25:36.498Z,99089.40
2022-10-23T15:28:12.804Z,99090.80
2022-10-23T15:30:48.780Z,99091.80
2022-10-23T15:33:26.009Z,99094.80
2022-10-23T15:36:02.505Z,99096.80
2022-10-23T15:38:39.340Z,99095.60
2022-10-23T15:41:24.730Z,99094.80
2022-10-23T15:44:01.955Z,99087.00
2022-10-23T15:46:38.340Z,99087.00
2022-10-23T15:49:14.476Z,99091.00
2022-10-23T15:51:50.996Z,99089.80
2022-10-23T15:54:30.538Z,99080.20
2022-10-23T15:57:09.100Z,99082.20
2022-10-23T15:59:45.309Z,99080.80
2022-10-23T16:02:21.902Z,99081.60
2022-10-23T16:04:57.814Z,99080.00
2022-10-23T16:07:33.993Z,99080.40
2022-10-23T16:10:13.114Z,99084.20
2022-10-23T16:12:50.036Z,99080.60
2022-10-23T16:15:26.144Z,99081.40
2022-10-23T16:18:02.201Z,99082.20
2022-10-23T16:20:44.068Z,99084.80
2022-10-23T16:23:21.041Z,99084.80
2022-10-23T16:26:02.491Z,99087.80
2022-10-23T16:28:39.485Z,99090.20
2022-10-23T16:31:20.726Z,99092.40
2022-10-23T16:36:40.142Z,99097.80
2022-10-23T16:39:25.172Z,99097.00
2022-10-23T16:42:20.112Z,99095.80
2022-10-23T16:45:15.104Z,99101.40
2022-10-23T16:47:50.919Z,99103.00
2022-10-23T16:50:26.802Z,99105.20
2022-10-23T16:53:02.540Z,99116.00
2022-10-23T16:55:41.023Z,99119.80
2022-10-23T16:58:16.865Z,99125.00
2022-10-23T17:01:04.411Z,99124.20
2022-10-23T17:03:44.691Z,99125.60
2022-10-23T17:06:25.630Z,99127.20
2022-10-23T17:09:03.191Z,99122.20
2022-10-23T17:11:41.669Z,99124.20
2022-10-23T17:14:21.347Z,99125.40
2022-10-23T17:17:01.146Z,99121.40
2022-10-23T17:19:45.168Z,99126.80
2022-10-23T17:22:22.054Z,99129.00
2022-10-23T17:24:58.152Z,99130.40
2022-10-23T17:27:34.149Z,99130.60
2022-10-23T17:30:13.953Z,99125.60
2022-10-23T17:32:49.833Z,99124.00
2022-10-23T17:35:25.762Z,99123.00
2022-10-23T17:38:03.087Z,99124.40
2022-10-23T17:40:40.004Z,99128.20
2022-10-23T17:43:16.603Z,99121.00
2022-10-23T17:45:52.595Z,99117.40
2022-10-23T17:48:28.822Z,99116.60
2022-10-23T17:51:11.726Z,99117.20
2022-10-23T17:53:51.371Z,99108.20
2022-10-23T17:56:30.899Z,99111.40
2022-10-23T17:59:14.598Z,99114.40
2022-10-23T18:01:51.483Z,99110.00
2022-10-23T18:04:28.383Z,99110.40
2022-10-23T18:07:04.203Z,99109.80
2022-10-23T18:09:40.072Z,99111.00
2022-10-23T18:12:15.862Z,99108.60
2022-10-23T18:14:51.904Z,99111.80
2022-10-23T18:17:27.786Z,99103.40
2022-10-23T18:20:04.162Z,99101.80
2022-10-23T18:22:41.143Z,99104.60
2022-10-23T18:25:17.474Z,99097.60
2022-10-23T18:27:53.631Z,99097.80
2022-10-23T18:30:31.143Z,99088.40
2022-10-23T18:33:07.283Z,99088.00
2022-10-23T18:35:43.986Z,99085.80
2022-10-23T18:38:20.596Z,99081.20
2022-10-23T18:40:59.477Z,99088.20
2022-10-23T18:43:44.066Z,99090.20
2022-10-23T18:46:22.060Z,99086.60
2022-10-23T18:48:58.098Z,99089.80
2022-10-23T18:51:38.581Z,99083.40
2022-10-23T18:54:23.106Z,99084.00
2022-10-23T18:57:01.426Z,99085.80
2022-10-23T18:59:41.952Z,99083.20
2022-10-23T19:02:18.205Z,99080.20
2022-10-23T19:04:54.160Z,99079.60
2022-10-23T19:07:30.918Z,99078.00
2022-10-23T19:10:08.208Z,99071.40
2022-10-23T19:12:44.853Z,99066.60
2022-10-23T19:15:22.432Z,99060.60
2022-10-23T19:17:59.446Z,99058.20
2022-10-23T19:20:36.822Z,99055.80
2022-10-23T19:23:15.950Z,99054.80
2022-10-23T19:25:52.806Z,99051.40
2022-10-23T19:28:30.569Z,99055.00
2022-10-23T19:31:10.949Z,99062.20
2022-10-23T19:33:50.387Z,99062.80
2022-10-23T19:36:26.629Z,99062.80
2022-10-23T19:39:02.724Z,99057.60
2022-10-23T19:41:38.760Z,99046.40
2022-10-23T19:44:16.022Z,99046.60
2022-10-23T19:46:52.515Z,99045.00
2022-10-23T19:49:28.814Z,99040.20
2022-10-23T19:52:05.579Z,99037.00
2022-10-23T19:54:41.981Z,99040.20
2022-10-23T19:57:22.577Z,99049.20
2022-10-23T19:59:58.869Z,99046.60
2022-10-23T20:02:37.342Z,99042.80
2022-10-23T20:05:15.660Z,99034.20
2022-10-23T20:07:52.556Z,99031.80
2022-10-23T20:10:30.001Z,99039.40
2022-10-23T20:13:18.843Z,99037.20
2022-10-23T20:15:56.077Z,99034.60
2022-10-23T20:18:32.596Z,99038.40
2022-10-23T20:21:08.825Z,99037.40
2022-10-23T20:23:46.647Z,99036.80
2022-10-23T20:26:23.739Z,99042.80
2022-10-23T20:29:00.361Z,99037.80
2022-10-23T20:31:37.106Z,99033.40
2022-10-23T20:34:14.238Z,99032.40
2022-10-23T20:36:52.565Z,99030.20
2022-10-23T20:39:29.874Z,99025.40
2022-10-23T20:42:07.521Z,99023.00
2022-10-23T20:44:43.279Z,99021.20
2022-10-23T20:47:19.457Z,99023.20
2022-10-23T20:49:55.287Z,99021.80
2022-10-23T20:55:11.423Z,99010.60
2022-10-23T20:57:47.611Z,99011.00
2022-10-23T21:00:23.908Z,99012.60
2022-10-23T21:03:01.613Z,99008.60
2022-10-23T21:05:38.231Z,99006.40
2022-10-23T21:08:14.012Z,99010.20
2022-10-23T21:10:52.247Z,99008.60
2022-10-23T21:13:28.447Z,99014.40
2022-10-23T21:16:14.707Z,99006.60
2022-10-23T21:18:50.614Z,99002.20
2022-10-23T21:21:27.717Z,99002.60
2022-10-23T21:24:08.522Z,99008.40
2022-10-23T21:26:45.065Z,99012.40
2022-10-23T21:29:21.094Z,99013.40
2022-10-23T21:32:02.283Z,99008.20
2022-10-23T21:34:38.140Z,99001.20
2022-10-23T21:37:14.865Z,98994.40
2022-10-23T21:39:51.786Z,98994.60
2022-10-23T21:45:11.025Z,98980.20
2022-10-23T21:47:47.084Z,98982.60
2022-10-23T21:50:23.104Z,98979.00
2022-10-23T21:52:59.961Z,98981.80
2022-10-23T21:55:36.155Z,98985.40
2022-10-23T21:58:12.909Z,98987.60
2022-10-23T22:00:48.762Z,98996.60
2022-10-23T22:03:24.604Z,98994.00
2022-10-23T22:06:01.777Z,98993.40
2022-10-23T22:08:37.442Z,98995.80
2022-10-23T22:11:14.339Z,98989.40
2022-10-23T22:13:51.020Z,98982.20
2022-10-23T22:16:27.142Z,98982.40
2022-10-23T22:19:03.657Z,98980.40
2022-10-23T22:21:40.103Z,98974.80
2022-10-23T22:24:17.533Z,98979.20
2022-10-23T22:26:56.462Z,98978.80
2022-10-23T22:29:33.722Z,98981.40
2022-10-23T22:32:10.119Z,98980.00
2022-10-23T22:34:53.164Z,98972.00
2022-10-23T22:37:29.403Z,98975.40
2022-10-23T22:40:05.685Z,98968.60
2022-10-23T22:42:41.663Z,98964.60
2022-10-23T22:45:18.650Z,98960.00
2022-10-23T22:47:56.538Z,98960.60
2022-10-23T22:50:34.125Z,98954.20
2022-10-23T22:53:10.547Z,98951.40
2022-10-23T22:55:48.697Z,98950.80
2022-10-23T22:58:26.059Z,98949.00
2022-10-23T23:01:13.317Z,98942.60
2022-10-23T23:03:50.113Z,98931.60
2022-10-23T23:06:27.082Z,98925.80
2022-10-23T23:09:03.187Z,98917.00
2022-10-23T23:11:51.292Z,98920.80
2022-10-23T23:14:30.267Z,98923.40
2022-10-23T23:17:06.583Z,98927.20
2022-10-23T23:19:43.388Z,98921.40
2022-10-23T23:22:19.636Z,98923.20
2022-10-23T23:24:55.774Z,98925.20
2022-10-23T23:27:31.834Z,98933.60
2022-10-23T23:30:12.067Z,98938.00
2022-10-23T23:32:52.540Z,98938.80
2022-10-23T23:35:29.598Z,98935.80
2022-10-23T23:38:08.990Z,98929.20
2022-10-23T23:40:56.475Z,98920.20
2022-10-23T23:43:36.477Z,98913.80
2022-10-23T23:46:18.052Z,98909.40
2022-10-23T23:48:56.722Z,98912.40
2022-10-23T23:51:34.730Z,98920.60
2022-10-23T23:54:12.825Z,98922.60
2022-10-23T23:56:48.736Z,98917.00
2022-10-23T23:59:24.679Z,98917.40
